Princeton, Oregon
Current Conditions -  °F | °C
As of 12:53 AM on Sunday 23 Nov 2014 (Local Time) from KBNO Reporting Station
Clear Clear  
Wind Chill: -7°   Ceiling: Unl
Heat Index: -2°   Visibility: 10mi
Dew Point: -4°   Wind: 8mph
Humidity: 85%   Direction: 300°WNW
Pressure: 30.2"   Gusts: NA
Location:  43.25°N, 118.58°W
Report Text: KBNO 230853Z AUTO 30007KT 10SM CLR M02/M04 A3020 RMK AO2 SLP245 T10221044 51019
Loading
Personal Weather Stations






























Interactive Weather Map New forecast layout! Learn more

10-Day Weather Forecast

Advertisements
Track Severe Weather on mobile